Time;durP1;ratioP1;P1;durP2;ratioP2;P2;SDS_P1;SDS_P2;PMS_P1;PMS_P2;Temp;Humidity;BMP_temperature;BMP_pressure;BME280_temperature;BME280_humidity;BME280_pressure;Samples;Min_cycle;Max_cycle;Signal;HPM_P1;HPM_P2
2022/12/06 00:01:05;;;;;;;7.47;1.90;;;5.60;99.90;;;;;;5023581;28;20414;-73
2022/12/06 00:03:31;;;;;;;7.25;1.60;;;5.60;99.90;;;;;;5035297;28;20921;-73
2022/12/06 00:06:08;;;;;;;7.70;1.80;;;5.70;99.90;;;;;;5028970;28;20409;-73
2022/12/06 00:08:33;;;;;;;6.43;1.60;;;5.60;99.90;;;;;;5017135;28;20421;-73
2022/12/06 00:11:08;;;;;;;5.95;1.70;;;5.70;99.90;;;;;;5012848;28;20417;-73
2022/12/06 00:13:34;;;;;;;9.65;2.00;;;5.60;99.90;;;;;;5006981;28;20495;-73
2022/12/06 00:16:05;;;;;;;7.88;1.73;;;5.70;99.90;;;;;;5007833;28;20413;-73
2022/12/06 00:18:32;;;;;;;6.65;1.80;;;5.70;99.90;;;;;;5002421;28;20785;-73
2022/12/06 00:21:22;;;;;;;5.53;1.48;;;5.70;99.90;;;;;;5015716;28;20405;-73
2022/12/06 00:23:53;;;;;;;6.22;1.50;;;5.70;99.90;;;;;;5004170;28;20455;-73
2022/12/06 00:26:19;;;;;;;4.93;1.17;;;5.70;99.90;;;;;;5014160;28;20416;-73
2022/12/06 00:28:45;;;;;;;6.07;1.15;;;5.70;99.90;;;;;;5003077;28;20413;-73
2022/12/06 00:31:16;;;;;;;4.17;0.97;;;5.80;99.90;;;;;;5014253;28;20463;-73
2022/12/06 00:33:42;;;;;;;6.10;1.30;;;5.80;99.90;;;;;;5003634;28;20434;-73
2022/12/06 00:36:16;;;;;;;4.82;1.00;;;5.80;99.90;;;;;;4995593;28;20840;-73
2022/12/06 00:38:42;;;;;;;5.95;1.40;;;5.80;99.90;;;;;;5003569;28;20416;-73
2022/12/06 00:41:12;;;;;;;8.80;1.77;;;5.80;99.90;;;;;;5011846;28;20407;-73
2022/12/06 00:43:38;;;;;;;4.60;1.20;;;5.80;99.90;;;;;;5006863;28;21150;-73
2022/12/06 00:46:05;;;;;;;6.80;1.00;;;5.80;99.90;;;;;;5007695;28;20818;-73
2022/12/06 00:48:31;;;;;;;7.20;1.17;;;5.80;99.90;;;;;;5008800;28;20467;-73
2022/12/06 00:50:57;;;;;;;5.73;0.90;;;5.80;99.90;;;;;;5011350;28;20495;-73
2022/12/06 00:53:23;;;;;;;3.20;0.80;;;5.80;99.90;;;;;;5008406;28;20798;-73
2022/12/06 00:55:49;;;;;;;4.18;0.60;;;5.80;99.90;;;;;;5009984;28;21238;-73
2022/12/06 00:58:15;;;;;;;4.15;0.70;;;5.80;99.90;;;;;;5007788;28;20436;-73
2022/12/06 01:00:41;;;;;;;3.97;0.73;;;5.80;99.90;;;;;;4998441;28;20409;-73
2022/12/06 01:03:07;;;;;;;3.58;0.55;;;5.80;99.90;;;;;;5003940;28;20475;-73
2022/12/06 01:05:32;;;;;;;7.10;1.08;;;5.80;99.90;;;;;;5009371;28;20405;-72
2022/12/06 01:07:58;;;;;;;3.53;0.70;;;5.70;99.90;;;;;;5016536;28;20476;-73
2022/12/06 01:10:24;;;;;;;4.73;0.60;;;5.80;99.90;;;;;;5034445;28;20477;-73
2022/12/06 01:12:50;;;;;;;7.05;0.85;;;5.80;99.90;;;;;;5020925;28;20491;-73
2022/12/06 01:15:16;;;;;;;6.00;0.85;;;5.70;99.90;;;;;;5036313;28;20890;-73
2022/12/06 01:17:41;;;;;;;2.63;0.52;;;5.70;99.90;;;;;;5030161;28;20399;-73
2022/12/06 01:20:08;;;;;;;4.23;0.80;;;5.70;99.90;;;;;;5032143;28;20405;-73
2022/12/06 01:22:33;;;;;;;3.53;0.90;;;5.70;99.90;;;;;;4997288;28;20506;-73
2022/12/06 01:24:59;;;;;;;3.47;0.80;;;5.70;99.90;;;;;;5027637;28;20552;-73
2022/12/06 01:27:25;;;;;;;7.13;1.40;;;5.70;99.90;;;;;;5020430;28;20419;-73
2022/12/06 01:29:51;;;;;;;4.93;1.00;;;5.70;99.90;;;;;;5029512;28;20452;-73
2022/12/06 01:32:16;;;;;;;5.20;0.90;;;5.70;99.90;;;;;;5027380;28;20443;-73
2022/12/06 01:34:44;;;;;;;5.40;0.90;;;5.70;99.90;;;;;;5031944;28;20761;-73
2022/12/06 01:37:10;;;;;;;4.68;1.00;;;5.70;99.90;;;;;;4998892;28;20412;-73
2022/12/06 01:39:36;;;;;;;5.05;0.93;;;5.70;99.90;;;;;;5034240;28;20412;-73
2022/12/06 01:42:01;;;;;;;3.75;0.90;;;5.60;99.90;;;;;;5027644;28;20754;-73
2022/12/06 01:44:44;;;;;;;4.23;0.70;;;5.60;99.90;;;;;;5023429;28;20405;-73
2022/12/06 01:47:26;;;;;;;3.92;0.90;;;5.60;99.90;;;;;;5028408;28;20567;-73
2022/12/06 01:50:06;;;;;;;3.47;0.70;;;5.60;99.90;;;;;;5029498;28;20407;-73
2022/12/06 01:52:56;;;;;;;5.22;0.77;;;5.50;99.90;;;;;;5035359;28;20410;-73
2022/12/06 01:55:27;;;;;;;5.72;0.90;;;5.50;99.90;;;;;;5029447;28;20407;-73
2022/12/06 01:57:57;;;;;;;4.57;1.00;;;5.50;99.90;;;;;;5023936;28;20411;-73
2022/12/06 02:00:23;;;;;;;2.70;1.00;;;5.50;99.90;;;;;;5029786;28;20411;-73
2022/12/06 02:02:48;;;;;;;5.47;0.98;;;5.50;99.90;;;;;;5036274;28;20527;-72
2022/12/06 02:05:15;;;;;;;5.95;1.13;;;5.50;99.90;;;;;;5033613;28;20787;-73
2022/12/06 02:07:42;;;;;;;4.63;0.93;;;5.50;99.90;;;;;;5027232;28;20479;-73
2022/12/06 02:10:08;;;;;;;4.77;0.90;;;5.50;99.90;;;;;;5008506;28;20509;-73
2022/12/06 02:12:34;;;;;;;4.30;0.88;;;5.50;99.90;;;;;;4996507;28;20407;-73
2022/12/06 02:14:59;;;;;;;8.23;1.10;;;5.40;99.90;;;;;;5007241;28;20460;-73
2022/12/06 02:17:49;;;;;;;3.67;0.82;;;5.40;99.90;;;;;;5008366;28;20769;-73
2022/12/06 02:20:26;;;;;;;4.63;1.15;;;5.40;99.90;;;;;;5014964;28;20417;-72
2022/12/06 02:23:34;;;;;;;4.47;1.10;;;5.40;99.90;;;;;;5016074;28;20523;-73
2022/12/06 02:26:34;;;;;;;4.30;1.02;;;5.40;99.90;;;;;;5013582;28;20779;-73
2022/12/06 02:29:34;;;;;;;3.78;1.00;;;5.40;99.90;;;;;;5014066;28;20823;-73
2022/12/06 02:32:05;;;;;;;4.05;0.98;;;5.40;99.90;;;;;;5012878;28;20487;-73
2022/12/06 02:34:45;;;;;;;3.40;0.93;;;5.40;99.90;;;;;;5017332;28;20411;-73
2022/12/06 02:37:20;;;;;;;5.35;0.90;;;5.40;99.90;;;;;;5014446;28;21029;-73
2022/12/06 02:39:52;;;;;;;4.70;0.82;;;5.40;99.90;;;;;;5018788;28;20907;-73
2022/12/06 02:42:23;;;;;;;3.70;0.90;;;5.40;99.90;;;;;;5018723;28;20423;-73
2022/12/06 02:45:01;;;;;;;3.63;0.70;;;5.40;99.90;;;;;;4990341;28;20411;-73
2022/12/06 02:47:31;;;;;;;4.30;1.00;;;5.40;99.90;;;;;;5007256;28;20895;-73
2022/12/06 02:49:58;;;;;;;2.10;0.50;;;5.40;99.90;;;;;;4991046;28;20454;-72
2022/12/06 02:52:26;;;;;;;2.80;0.40;;;5.40;99.90;;;;;;5008756;28;20403;-73
2022/12/06 02:54:58;;;;;;;3.10;0.30;;;5.40;99.90;;;;;;5003714;28;20886;-73
2022/12/06 02:57:40;;;;;;;1.50;0.40;;;5.40;99.90;;;;;;5010505;28;20960;-73
2022/12/06 03:00:37;;;;;;;1.60;0.20;;;5.30;99.90;;;;;;5008056;28;20407;-73
2022/12/06 03:03:17;;;;;;;1.83;0.20;;;5.30;99.90;;;;;;4989942;28;20437;-74
2022/12/06 03:06:01;;;;;;;1.02;0.20;;;5.30;99.90;;;;;;5007539;28;20507;-75
2022/12/06 03:08:47;;;;;;;2.47;0.40;;;5.30;99.90;;;;;;5024525;28;20419;-73
2022/12/06 03:11:13;;;;;;;1.60;0.25;;;5.30;99.90;;;;;;5031934;28;20415;-73
2022/12/06 03:14:01;;;;;;;2.20;0.28;;;5.30;99.90;;;;;;5034430;28;20812;-73
2022/12/06 03:17:08;;;;;;;1.73;0.40;;;5.30;99.90;;;;;;5030069;28;22020;-73
2022/12/06 03:19:37;;;;;;;3.65;0.30;;;5.30;99.90;;;;;;4987043;28;20419;-72
2022/12/06 03:22:07;;;;;;;2.15;0.17;;;5.30;99.90;;;;;;5040753;28;20399;-73
2022/12/06 03:24:36;;;;;;;2.20;0.20;;;5.30;99.90;;;;;;5030834;28;20548;-73
2022/12/06 03:27:08;;;;;;;2.42;0.40;;;5.30;99.90;;;;;;5026486;28;21019;-73
2022/12/06 03:29:39;;;;;;;2.00;0.10;;;5.30;99.90;;;;;;5032719;28;20403;-73
2022/12/06 03:32:08;;;;;;;3.75;0.60;;;5.30;99.90;;;;;;5029772;28;20441;-73
2022/12/06 03:34:37;;;;;;;1.55;0.20;;;5.30;99.90;;;;;;5029647;28;20413;-73
2022/12/06 03:37:06;;;;;;;3.22;0.30;;;5.30;99.90;;;;;;5015658;28;20900;-73
2022/12/06 03:39:36;;;;;;;2.20;0.35;;;5.30;99.90;;;;;;5030610;28;20510;-72
2022/12/06 03:42:02;;;;;;;1.58;0.20;;;5.30;99.90;;;;;;5033353;28;20418;-73
2022/12/06 03:44:28;;;;;;;5.33;0.53;;;5.30;99.90;;;;;;5023307;28;20405;-73
2022/12/06 03:47:07;;;;;;;1.75;0.22;;;5.30;99.90;;;;;;5023067;28;20798;-73
2022/12/06 03:49:47;;;;;;;1.90;0.30;;;5.30;99.90;;;;;;5021740;28;20409;-73
2022/12/06 03:52:12;;;;;;;5.60;0.35;;;5.30;99.90;;;;;;5030168;28;20411;-73
2022/12/06 03:54:39;;;;;;;3.23;0.30;;;5.30;99.90;;;;;;5041757;28;20408;-73
2022/12/06 03:57:05;;;;;;;4.22;0.52;;;5.30;99.90;;;;;;5033949;28;20407;-73
2022/12/06 03:59:31;;;;;;;3.25;0.60;;;5.30;99.90;;;;;;5036566;28;20943;-73
2022/12/06 04:01:56;;;;;;;3.60;0.30;;;5.30;99.90;;;;;;5038825;28;20407;-73
2022/12/06 04:04:23;;;;;;;2.80;0.30;;;5.30;99.90;;;;;;5037389;28;20427;-73
2022/12/06 04:06:50;;;;;;;1.50;0.30;;;5.40;99.90;;;;;;5024028;28;20405;-73
2022/12/06 04:12:02;;;;;;;2.80;0.30;;;5.30;99.90;;;;;;5013442;28;20788;-73
2022/12/06 04:14:31;;;;;;;3.70;0.30;;;5.30;99.90;;;;;;5012104;28;20499;-73
2022/12/06 04:19:43;;;;;;;3.72;0.40;;;5.30;99.90;;;;;;5004213;28;20405;-73
2022/12/06 04:24:53;;;;;;;2.80;0.30;;;5.30;99.90;;;;;;5017088;28;20412;-73
2022/12/06 04:41:01;;;;;;;5.93;0.35;;;5.40;99.90;;;;;;5008473;28;20409;-73
2022/12/06 04:43:42;;;;;;;2.50;0.35;;;5.30;99.90;;;;;;5009069;28;20441;-73
2022/12/06 04:46:09;;;;;;;3.95;0.50;;;5.40;99.90;;;;;;5000506;28;20539;-73
2022/12/06 04:48:35;;;;;;;4.68;0.60;;;5.40;99.90;;;;;;5000570;28;20945;-73
2022/12/06 04:51:01;;;;;;;4.03;0.60;;;5.30;99.90;;;;;;5000304;28;20415;-72
2022/12/06 04:53:27;;;;;;;2.97;0.50;;;5.30;99.90;;;;;;5005674;28;20405;-73
2022/12/06 04:55:53;;;;;;;3.73;0.70;;;5.30;99.90;;;;;;5009034;28;20432;-73
2022/12/06 04:58:18;;;;;;;3.70;0.47;;;5.30;99.90;;;;;;5018474;28;20955;-73
2022/12/06 05:00:44;;;;;;;1.85;0.47;;;5.30;99.90;;;;;;5010128;28;20413;-72
2022/12/06 05:03:11;;;;;;;2.33;0.50;;;5.30;99.90;;;;;;5012232;28;20527;-73
2022/12/06 05:05:36;;;;;;;2.35;0.40;;;5.30;99.90;;;;;;5002736;28;20429;-72
2022/12/06 05:08:03;;;;;;;4.03;0.57;;;5.30;99.90;;;;;;5021944;28;20415;-72
2022/12/06 05:10:28;;;;;;;3.47;0.50;;;5.30;99.90;;;;;;5015489;28;20482;-73
2022/12/06 05:12:54;;;;;;;4.97;0.50;;;5.30;99.90;;;;;;5011269;28;20505;-73
2022/12/06 05:15:19;;;;;;;2.73;0.50;;;5.30;99.90;;;;;;5021845;28;20775;-73
2022/12/06 05:17:45;;;;;;;2.60;0.43;;;5.30;99.90;;;;;;5037791;28;20412;-73
2022/12/06 05:20:13;;;;;;;4.97;0.60;;;5.20;99.90;;;;;;5028905;28;20876;-72
2022/12/06 05:22:39;;;;;;;2.78;0.75;;;5.20;99.90;;;;;;5039261;28;20939;-73
2022/12/06 05:25:04;;;;;;;3.00;0.82;;;5.20;99.90;;;;;;5015098;28;20412;-72
2022/12/06 05:27:30;;;;;;;3.58;0.77;;;5.20;99.90;;;;;;5017146;28;20403;-72
2022/12/06 05:29:55;;;;;;;4.17;1.00;;;5.10;99.90;;;;;;5027045;28;20403;-72
2022/12/06 05:32:21;;;;;;;3.70;1.00;;;5.10;99.90;;;;;;5026903;28;20414;-73
2022/12/06 05:34:47;;;;;;;3.43;1.23;;;5.10;99.90;;;;;;5032418;28;20475;-72
2022/12/06 05:37:12;;;;;;;3.78;1.27;;;5.10;99.90;;;;;;5023927;28;20403;-73
2022/12/06 05:39:38;;;;;;;2.95;1.50;;;5.10;99.90;;;;;;5032474;28;20490;-72
2022/12/06 05:42:04;;;;;;;4.97;1.47;;;5.10;99.90;;;;;;5031550;28;20481;-73
2022/12/06 05:44:29;;;;;;;4.00;1.33;;;5.10;99.90;;;;;;5031688;28;20461;-73
2022/12/06 05:46:55;;;;;;;3.20;1.40;;;5.00;99.90;;;;;;5032235;28;20909;-73
2022/12/06 05:49:20;;;;;;;3.67;1.65;;;5.00;99.90;;;;;;5035189;28;20455;-72
2022/12/06 05:51:46;;;;;;;3.43;1.73;;;4.90;99.90;;;;;;5031518;28;20839;-72
2022/12/06 05:54:11;;;;;;;4.40;1.53;;;4.90;99.90;;;;;;5031484;28;20399;-72
2022/12/06 05:56:38;;;;;;;5.38;1.80;;;4.80;99.90;;;;;;5023714;28;20403;-72
2022/12/06 05:59:04;;;;;;;5.80;1.70;;;4.80;99.90;;;;;;5035188;28;20411;-73
2022/12/06 06:01:30;;;;;;;4.07;1.70;;;4.70;99.90;;;;;;5039257;28;20457;-72
2022/12/06 06:03:56;;;;;;;6.32;2.05;;;4.70;99.90;;;;;;5030910;28;20510;-72
2022/12/06 06:06:22;;;;;;;4.28;1.90;;;4.70;99.90;;;;;;5031212;28;20490;-72
2022/12/06 06:08:48;;;;;;;5.03;2.00;;;4.70;99.90;;;;;;5030777;28;20411;-72
2022/12/06 06:11:14;;;;;;;4.40;2.03;;;4.70;99.90;;;;;;5036243;28;20738;-72
2022/12/06 06:13:39;;;;;;;5.05;2.15;;;4.70;99.90;;;;;;5030478;28;20422;-72
2022/12/06 06:16:05;;;;;;;4.30;2.17;;;4.70;99.90;;;;;;5002266;28;20489;-72
2022/12/06 06:18:31;;;;;;;4.32;2.00;;;4.70;99.90;;;;;;5018687;28;21191;-72
2022/12/06 06:20:58;;;;;;;5.65;2.25;;;4.70;99.90;;;;;;5017171;28;20517;-72
2022/12/06 06:23:26;;;;;;;6.78;2.80;;;4.70;99.90;;;;;;5030240;28;20504;-73
2022/12/06 06:25:51;;;;;;;5.63;2.33;;;4.70;99.90;;;;;;5028054;28;20488;-72
2022/12/06 06:28:18;;;;;;;5.97;2.50;;;4.70;99.90;;;;;;5038242;28;20843;-72
2022/12/06 06:30:44;;;;;;;7.07;2.65;;;4.60;99.90;;;;;;5030969;28;20410;-73
2022/12/06 06:33:10;;;;;;;5.28;2.58;;;4.70;99.90;;;;;;5012792;28;20499;-73
2022/12/06 06:35:36;;;;;;;4.82;2.55;;;4.70;99.90;;;;;;5041220;28;20772;-73
2022/12/06 06:38:02;;;;;;;5.63;2.60;;;4.70;99.90;;;;;;5014391;28;20407;-73
2022/12/06 06:40:28;;;;;;;6.43;2.85;;;4.60;99.90;;;;;;5038980;28;20501;-75
2022/12/06 06:42:55;;;;;;;6.00;2.90;;;4.60;99.90;;;;;;5021703;28;20430;-74
2022/12/06 06:45:20;;;;;;;6.85;2.67;;;4.60;99.90;;;;;;5029958;28;21001;-74
2022/12/06 06:47:46;;;;;;;5.53;3.20;;;4.50;99.90;;;;;;5012188;28;20490;-74
2022/12/06 06:50:12;;;;;;;4.78;2.70;;;4.50;99.90;;;;;;5034744;28;20410;-73
2022/12/06 06:52:37;;;;;;;6.53;2.83;;;4.50;99.90;;;;;;5011947;28;20763;-74
2022/12/06 06:55:03;;;;;;;6.43;2.70;;;4.40;99.90;;;;;;5034766;28;20481;-74
2022/12/06 06:57:29;;;;;;;5.35;2.30;;;4.30;99.90;;;;;;5016899;28;20465;-74
2022/12/06 06:59:55;;;;;;;4.72;2.10;;;4.30;99.90;;;;;;5021123;28;20411;-78
2022/12/06 07:02:21;;;;;;;6.78;2.58;;;4.20;99.90;;;;;;5012283;28;20820;-73
2022/12/06 07:04:46;;;;;;;7.57;3.10;;;4.10;99.90;;;;;;5031480;28;20426;-74
2022/12/06 07:07:12;;;;;;;5.03;2.30;;;4.10;99.90;;;;;;5022647;28;20423;-73
2022/12/06 07:09:38;;;;;;;5.78;2.42;;;4.00;99.90;;;;;;5030508;28;20992;-74
2022/12/06 07:12:04;;;;;;;7.07;2.30;;;3.90;99.90;;;;;;5031607;28;20457;-73
2022/12/06 07:14:30;;;;;;;6.40;2.65;;;3.90;99.90;;;;;;5038445;28;20404;-73
2022/12/06 07:16:55;;;;;;;5.57;2.60;;;3.80;99.90;;;;;;5016380;28;20423;-73
2022/12/06 07:19:21;;;;;;;4.70;2.20;;;3.80;99.90;;;;;;5038625;28;20406;-73
2022/12/06 07:21:47;;;;;;;4.85;2.53;;;3.70;99.90;;;;;;5041346;28;20423;-73
2022/12/06 07:24:12;;;;;;;5.43;2.80;;;3.60;99.90;;;;;;5035638;28;20494;-73
2022/12/06 07:26:38;;;;;;;6.70;2.70;;;3.60;99.90;;;;;;5031856;28;20770;-73
2022/12/06 07:29:04;;;;;;;7.45;2.95;;;3.50;99.90;;;;;;5032928;28;20417;-73
2022/12/06 07:31:30;;;;;;;6.83;3.10;;;3.50;99.90;;;;;;5038903;28;20406;-73
2022/12/06 07:33:58;;;;;;;8.35;3.03;;;3.40;99.90;;;;;;5040223;28;20463;-73
2022/12/06 07:36:25;;;;;;;9.75;3.65;;;3.40;99.90;;;;;;5039681;28;20405;-72
2022/12/06 07:38:55;;;;;;;8.27;3.38;;;3.30;99.90;;;;;;5030875;28;20429;-72
2022/12/06 07:46:55;;;;;;;8.52;3.92;;;3.10;99.90;;;;;;5030704;28;20463;-73
2022/12/06 07:49:20;;;;;;;8.65;3.53;;;3.10;99.90;;;;;;5029960;28;20415;-74
2022/12/06 07:51:46;;;;;;;7.67;3.80;;;3.10;99.90;;;;;;5027374;28;20515;-74
2022/12/06 07:54:13;;;;;;;8.32;3.35;;;3.00;99.90;;;;;;5019588;28;20478;-74
2022/12/06 07:56:39;;;;;;;7.35;3.67;;;3.00;99.90;;;;;;5042133;28;20873;-74
2022/12/06 07:59:05;;;;;;;8.13;3.63;;;3.10;99.90;;;;;;5033160;28;20418;-74
2022/12/06 08:01:30;;;;;;;8.63;3.65;;;3.10;99.90;;;;;;5040447;28;20399;-74
2022/12/06 08:03:59;;;;;;;9.37;3.57;;;3.10;99.90;;;;;;5040543;28;20429;-73
2022/12/06 08:06:25;;;;;;;7.30;3.90;;;3.10;99.90;;;;;;5028366;28;20455;-74
2022/12/06 08:08:51;;;;;;;8.07;3.90;;;3.20;99.90;;;;;;4994312;28;20481;-74
2022/12/06 08:11:16;;;;;;;9.50;3.63;;;3.20;99.90;;;;;;5038720;28;20897;-74
2022/12/06 08:13:42;;;;;;;10.43;3.93;;;3.20;99.90;;;;;;5028609;28;20438;-73
2022/12/06 08:16:14;;;;;;;6.75;3.47;;;3.20;99.90;;;;;;5023874;28;20403;-73
2022/12/06 08:18:40;;;;;;;10.32;4.03;;;3.30;99.90;;;;;;5035598;28;20439;-74
2022/12/06 08:21:07;;;;;;;9.00;4.15;;;3.30;99.90;;;;;;5029395;28;20419;-74
2022/12/06 08:23:33;;;;;;;8.32;3.90;;;3.30;99.90;;;;;;5012212;28;21029;-74
2022/12/06 08:26:04;;;;;;;7.90;3.53;;;3.40;99.90;;;;;;5031982;28;20561;-74
2022/12/06 08:28:31;;;;;;;11.02;4.38;;;3.40;99.90;;;;;;5014028;28;21151;-73
2022/12/06 08:30:57;;;;;;;7.82;4.18;;;3.50;99.90;;;;;;5040434;28;20427;-74
2022/12/06 08:33:24;;;;;;;11.15;4.45;;;3.60;99.90;;;;;;5032563;28;20437;-75
2022/12/06 08:35:50;;;;;;;8.43;3.60;;;3.60;99.90;;;;;;5035241;28;20955;-74
2022/12/06 08:38:17;;;;;;;8.63;4.53;;;3.70;99.90;;;;;;5012732;28;20399;-73
2022/12/06 08:40:43;;;;;;;11.73;6.00;;;3.70;99.90;;;;;;5005605;28;20427;-74
2022/12/06 08:43:09;;;;;;;11.77;5.77;;;3.80;99.90;;;;;;5029902;28;20477;-74
2022/12/06 08:45:34;;;;;;;11.02;5.70;;;3.80;99.90;;;;;;5032133;28;20534;-74
2022/12/06 08:48:00;;;;;;;10.17;5.43;;;3.80;99.90;;;;;;5031162;28;20526;-74
2022/12/06 08:50:26;;;;;;;7.57;4.32;;;3.90;99.90;;;;;;5029261;28;20423;-74
2022/12/06 08:52:52;;;;;;;7.75;4.53;;;3.90;99.90;;;;;;5013574;28;20415;-74
2022/12/06 08:55:18;;;;;;;11.13;5.50;;;4.00;99.90;;;;;;5029042;28;20527;-73
2022/12/06 08:57:43;;;;;;;9.43;4.47;;;4.10;99.90;;;;;;5008113;28;20500;-74
2022/12/06 09:00:10;;;;;;;8.17;2.93;;;4.10;99.90;;;;;;5008670;28;20438;-74
2022/12/06 09:02:40;;;;;;;5.32;2.40;;;4.20;99.90;;;;;;4991480;28;20509;-73
2022/12/06 09:05:06;;;;;;;4.85;2.70;;;4.20;99.90;;;;;;5015193;28;20415;-73
2022/12/06 09:07:31;;;;;;;7.35;2.97;;;4.20;99.90;;;;;;5015781;28;20433;-75
2022/12/06 09:09:57;;;;;;;6.63;2.50;;;4.20;99.90;;;;;;5031037;28;20470;-75
2022/12/06 09:12:23;;;;;;;47.00;8.93;;;4.20;99.90;;;;;;5013008;28;20422;-71
2022/12/06 09:14:49;;;;;;;13.23;3.28;;;4.20;99.90;;;;;;5026630;28;20431;-72
2022/12/06 09:17:15;;;;;;;87.50;13.23;;;4.10;99.90;;;;;;5029974;28;20449;-74
2022/12/06 09:19:40;;;;;;;10.75;3.25;;;4.10;99.90;;;;;;5030432;28;20500;-74
2022/12/06 09:22:06;;;;;;;6.47;2.43;;;4.10;99.90;;;;;;5013687;28;20498;-74
2022/12/06 09:24:32;;;;;;;4.63;2.28;;;4.00;99.90;;;;;;5031681;28;20466;-72
2022/12/06 09:26:58;;;;;;;4.47;2.30;;;4.00;99.90;;;;;;5041952;28;20410;-73
2022/12/06 09:29:23;;;;;;;6.35;2.50;;;4.00;99.90;;;;;;5042293;28;20421;-72
2022/12/06 09:31:49;;;;;;;5.00;2.33;;;4.00;99.90;;;;;;5031443;28;20409;-74
2022/12/06 09:34:16;;;;;;;3.45;1.92;;;4.00;99.90;;;;;;5039245;28;20417;-74
2022/12/06 09:36:53;;;;;;;6.13;2.58;;;4.00;99.90;;;;;;5034245;28;20418;-75
2022/12/06 09:39:49;;;;;;;5.78;2.40;;;3.90;99.90;;;;;;5020986;28;20463;-73
2022/12/06 09:43:00;;;;;;;6.20;2.40;;;4.00;99.90;;;;;;5032481;28;20514;-73
2022/12/06 09:45:51;;;;;;;6.70;2.20;;;4.00;99.90;;;;;;5011985;28;20490;-73
2022/12/06 09:48:38;;;;;;;4.47;2.08;;;4.00;99.90;;;;;;5029435;28;20425;-73
2022/12/06 09:51:17;;;;;;;4.78;1.95;;;4.10;99.90;;;;;;5014917;28;20420;-73
2022/12/06 09:54:11;;;;;;;5.78;2.03;;;4.20;99.90;;;;;;5035014;28;20409;-73
2022/12/06 09:56:49;;;;;;;5.60;2.00;;;4.30;99.90;;;;;;5032758;28;20415;-73
2022/12/06 09:59:57;;;;;;;7.10;2.10;;;4.40;99.90;;;;;;4998221;28;20461;-72
2022/12/06 10:02:46;;;;;;;4.97;2.00;;;4.50;99.90;;;;;;5035156;28;20426;-73
2022/12/06 10:05:33;;;;;;;4.18;1.75;;;4.70;99.90;;;;;;5030169;28;20571;-73
2022/12/06 10:08:12;;;;;;;6.50;1.90;;;4.90;99.90;;;;;;5011199;28;20808;-73
2022/12/06 10:11:10;;;;;;;4.40;1.73;;;5.00;99.90;;;;;;5013769;28;20423;-73
2022/12/06 10:14:01;;;;;;;4.57;2.00;;;5.10;99.90;;;;;;5013293;28;20462;-73
2022/12/06 10:16:48;;;;;;;3.27;1.60;;;5.10;99.90;;;;;;5031484;28;20434;-73
2022/12/06 10:19:40;;;;;;;3.80;2.20;;;5.20;99.90;;;;;;5033119;28;20570;-73
2022/12/06 10:22:16;;;;;;;5.88;2.42;;;5.20;99.90;;;;;;5032674;28;20431;-74
2022/12/06 10:25:02;;;;;;;4.70;1.83;;;5.30;99.90;;;;;;5033341;28;20836;-73
2022/12/06 10:27:38;;;;;;;3.50;1.83;;;5.30;99.90;;;;;;5037771;28;20420;-73
2022/12/06 10:30:09;;;;;;;3.78;1.60;;;5.30;99.90;;;;;;5029430;28;20446;-73
2022/12/06 10:32:50;;;;;;;4.13;1.77;;;5.40;99.90;;;;;;5028566;28;20411;-73
2022/12/06 10:35:17;;;;;;;5.27;1.93;;;5.50;99.90;;;;;;5029690;28;20429;-74
2022/12/06 10:37:54;;;;;;;6.20;1.80;;;5.60;99.90;;;;;;5035637;28;20413;-74
2022/12/06 10:40:25;;;;;;;4.82;1.77;;;5.70;99.90;;;;;;5029650;28;20426;-74
2022/12/06 10:43:14;;;;;;;3.55;1.60;;;5.80;99.90;;;;;;5013030;28;20480;-73
2022/12/06 10:48:42;;;;;;;5.47;1.60;;;6.00;99.90;;;;;;5033930;28;20436;-73
2022/12/06 10:51:22;;;;;;;5.35;1.25;;;6.10;99.90;;;;;;5015840;28;20751;-73
2022/12/06 10:53:56;;;;;;;4.13;1.45;;;6.30;99.90;;;;;;5024941;28;20409;-73
2022/12/06 10:56:40;;;;;;;4.43;1.20;;;6.50;99.90;;;;;;5035139;28;20509;-73
2022/12/06 10:59:21;;;;;;;4.25;1.50;;;6.80;99.90;;;;;;5005622;28;20407;-73
2022/12/06 11:01:48;;;;;;;4.68;1.33;;;7.00;99.90;;;;;;5034521;28;20441;-72
2022/12/06 11:04:24;;;;;;;3.30;1.07;;;7.20;99.90;;;;;;5030072;28;20505;-73
2022/12/06 11:06:54;;;;;;;3.95;1.05;;;7.40;99.90;;;;;;5008251;28;20505;-73
2022/12/06 11:09:31;;;;;;;4.22;1.20;;;7.40;99.90;;;;;;5032383;28;20418;-73
2022/12/06 11:11:57;;;;;;;3.83;1.10;;;7.30;99.90;;;;;;5038069;28;20489;-73
2022/12/06 11:14:37;;;;;;;3.88;1.40;;;7.20;99.90;;;;;;5033817;28;20422;-73
2022/12/06 11:17:12;;;;;;;5.88;1.00;;;7.20;99.90;;;;;;5033170;28;20782;-74
2022/12/06 11:19:38;;;;;;;3.92;1.20;;;7.10;99.90;;;;;;5025094;28;20410;-73
2022/12/06 11:22:39;;;;;;;5.30;1.50;;;7.30;99.90;;;;;;5015186;28;20461;-73
2022/12/06 11:25:27;;;;;;;3.00;1.13;;;7.40;99.90;;;;;;4993947;28;20434;-73
2022/12/06 11:27:58;;;;;;;3.50;1.13;;;7.30;99.90;;;;;;5023691;28;20519;-73
2022/12/06 11:30:23;;;;;;;6.57;1.40;;;7.20;99.90;;;;;;5010881;28;20439;-73
2022/12/06 11:32:50;;;;;;;5.67;1.77;;;7.10;99.90;;;;;;5030633;28;20409;-73
2022/12/06 11:35:20;;;;;;;3.57;1.37;;;7.00;99.90;;;;;;5010439;28;20449;-73
2022/12/06 11:37:53;;;;;;;5.38;1.33;;;7.00;99.90;;;;;;5028471;28;20416;-73
2022/12/06 11:40:27;;;;;;;4.33;1.47;;;6.90;99.90;;;;;;5010561;28;20823;-73
2022/12/06 11:42:54;;;;;;;3.30;1.52;;;6.90;99.90;;;;;;5027608;28;21021;-73
2022/12/06 11:45:28;;;;;;;4.18;1.58;;;6.90;99.90;;;;;;5025169;28;20413;-73
2022/12/06 11:47:55;;;;;;;3.42;1.50;;;6.80;99.90;;;;;;5024760;28;20493;-74
2022/12/06 11:50:23;;;;;;;4.32;1.55;;;6.80;99.90;;;;;;5030796;28;20403;-73
2022/12/06 11:52:51;;;;;;;4.05;1.60;;;6.70;99.90;;;;;;5023623;28;20420;-73
2022/12/06 11:55:25;;;;;;;3.28;1.55;;;6.70;99.90;;;;;;5027541;28;20415;-73
2022/12/06 11:58:00;;;;;;;3.95;1.70;;;6.70;99.90;;;;;;5011572;28;20783;-73
2022/12/06 12:00:26;;;;;;;4.35;1.50;;;6.70;99.90;;;;;;5027824;28;20408;-73
2022/12/06 12:02:55;;;;;;;4.47;1.48;;;6.80;99.90;;;;;;5031673;28;20506;-73
2022/12/06 12:05:33;;;;;;;3.22;1.27;;;7.10;99.90;;;;;;5025238;28;20413;-73
2022/12/06 12:07:58;;;;;;;4.03;2.10;;;7.50;99.90;;;;;;5020496;28;20417;-73
2022/12/06 12:10:27;;;;;;;4.32;1.30;;;7.90;99.90;;;;;;5007065;28;20424;-74
2022/12/06 12:15:46;;;;;;;3.42;1.50;;;8.40;99.90;;;;;;5004153;28;20417;-74
2022/12/06 12:18:24;;;;;;;4.57;1.40;;;8.70;99.90;;;;;;5006676;28;20502;-74
2022/12/06 12:20:50;;;;;;;3.28;1.13;;;8.80;99.90;;;;;;5021530;28;20415;-74
2022/12/06 12:23:37;;;;;;;3.10;1.40;;;8.70;99.90;;;;;;5010643;28;20433;-73
2022/12/06 12:26:13;;;;;;;3.35;1.40;;;8.60;99.90;;;;;;5010017;28;20666;-73
2022/12/06 12:28:41;;;;;;;3.80;1.30;;;8.60;99.90;;;;;;5012358;28;20440;-73
2022/12/06 12:31:16;;;;;;;3.08;1.45;;;8.60;99.90;;;;;;5003540;28;20436;-73
2022/12/06 12:33:42;;;;;;;2.87;1.10;;;8.50;99.90;;;;;;5009162;28;20513;-73
2022/12/06 12:36:15;;;;;;;3.10;1.30;;;8.40;99.90;;;;;;5004416;28;20505;-73
2022/12/06 12:38:55;;;;;;;2.20;1.30;;;8.30;99.90;;;;;;5010421;28;20778;-73
2022/12/06 12:41:22;;;;;;;3.55;1.20;;;8.30;99.90;;;;;;5012543;28;20404;-72
2022/12/06 12:43:58;;;;;;;3.33;1.30;;;8.30;99.90;;;;;;5005316;28;20436;-72
2022/12/06 12:46:24;;;;;;;4.53;1.30;;;8.20;99.90;;;;;;5007017;28;20934;-72
2022/12/06 12:48:51;;;;;;;2.80;1.10;;;8.20;99.90;;;;;;5006318;28;21078;-73
2022/12/06 12:51:26;;;;;;;4.22;1.70;;;8.10;99.90;;;;;;5014827;28;20415;-72
2022/12/06 12:53:58;;;;;;;2.63;1.30;;;8.10;99.90;;;;;;5013620;28;20432;-73
2022/12/06 12:56:24;;;;;;;3.33;1.33;;;8.10;99.90;;;;;;5002613;28;20480;-73
2022/12/06 12:58:56;;;;;;;2.97;1.20;;;8.10;99.90;;;;;;5014351;28;20910;-72
2022/12/06 13:01:36;;;;;;;4.68;1.30;;;8.00;99.90;;;;;;5015681;28;20582;-73
2022/12/06 13:04:29;;;;;;;3.53;1.60;;;8.10;99.90;;;;;;5001615;28;20443;-73
2022/12/06 13:07:06;;;;;;;3.55;1.40;;;8.30;99.90;;;;;;5015353;28;20416;-73
2022/12/06 13:09:45;;;;;;;5.13;1.90;;;8.30;99.90;;;;;;5011579;28;20801;-74
2022/12/06 13:12:29;;;;;;;4.50;2.00;;;8.40;99.90;;;;;;5005658;28;20851;-73
2022/12/06 13:15:27;;;;;;;3.22;1.58;;;8.30;99.90;;;;;;5008191;28;20854;-73
2022/12/06 13:17:58;;;;;;;2.55;1.40;;;8.20;99.90;;;;;;5008976;28;20451;-72
2022/12/06 13:20:28;;;;;;;3.65;1.40;;;8.10;99.90;;;;;;5007225;28;20416;-73
2022/12/06 13:23:01;;;;;;;4.97;1.80;;;7.90;99.90;;;;;;5006172;28;20787;-72
2022/12/06 13:25:27;;;;;;;3.57;1.80;;;7.80;99.90;;;;;;5005644;28;20470;-72
2022/12/06 13:27:57;;;;;;;4.10;1.57;;;7.70;99.90;;;;;;4999662;28;20909;-72
2022/12/06 13:30:25;;;;;;;4.13;1.98;;;7.70;99.90;;;;;;5006411;28;20412;-73
2022/12/06 13:32:58;;;;;;;5.95;1.80;;;7.60;99.90;;;;;;5007814;28;20491;-73
2022/12/06 13:35:39;;;;;;;7.00;2.10;;;7.60;99.90;;;;;;5008351;28;20455;-73
2022/12/06 13:38:17;;;;;;;4.80;1.98;;;7.50;99.90;;;;;;5000891;28;20934;-73
2022/12/06 13:40:50;;;;;;;3.70;1.90;;;7.50;99.90;;;;;;5010939;28;20957;-73
2022/12/06 13:43:25;;;;;;;4.50;2.10;;;7.40;99.90;;;;;;4997726;28;20438;-73
2022/12/06 13:45:52;;;;;;;4.00;1.80;;;7.40;99.90;;;;;;4989637;28;20428;-73
2022/12/06 13:48:24;;;;;;;3.80;1.90;;;7.40;99.90;;;;;;5013218;28;20791;-73
2022/12/06 13:51:34;;;;;;;4.95;1.90;;;7.40;99.90;;;;;;4991017;28;20988;-73